• Join FlightAware (Why Join?)
  • Login
  • US Flag 
01:44AM EDT


 

Airport Tracker/Info


-or-


 

Live Flight TrackerFlight Track Log ✈ UAL4567 ✈ 29-Apr-2013 ✈ KMCI - KCLE

Flight Track Log - Related Links

Times and Time Zones

All times are in EDT time to prevent confusion due to time zone crossing. See the UAL4567 flight status page for this flight to view local times or setup timezone preferences in your user account.

Time Position Orientation Groundspeed Altitude Reporting Facility
EDT Latitude Longitude Course Direction KTS MPH feet Rate Location/Type
05:16PM 39.3000 -94.7333 169° South 159 183 2,000  Level Kansas City TRACON
05:18PM 39.2333 -94.7167 169° South 191 220 4,700 2,580 Climbing Kansas City TRACON
05:19PM 39.1833 -94.7000 166° South 198 228 7,500 2,520 Climbing Kansas City TRACON
05:20PM 39.1925 -94.6161 82° East 257 296 10,300 1,380 Climbing Kansas City Center
05:21PM 39.2672 -94.5553 32° Northeast 342 394 10,700 1,200 Climbing Kansas City Center
05:22PM 39.3697 -94.4683 33° Northeast 393 452 12,800 1,980 Climbing Kansas City Center
05:23PM 39.4572 -94.3953 33° Northeast 393 452 14,900 1,800 Climbing Kansas City Center
05:24PM 39.5603 -94.3092 33° Northeast 396 456 16,600 1,620 Climbing Kansas City Center
05:25PM 39.6511 -94.2300 34° Northeast 411 473 18,300 1,500 Climbing Kansas City Center
05:26PM 39.7583 -94.1397 33° Northeast 411 473 19,800 1,200 Climbing Kansas City Center
05:27PM 39.8439 -94.0631 35° Northeast 429 494 20,900 1,260 Climbing Kansas City Center
05:28PM 39.9631 -93.9556 35° Northeast 437 503 22,500 1,320 Climbing Kansas City Center
05:29PM 40.0489 -93.8403 46° Northeast 444 511 23,700 960 Climbing Kansas City Center
05:30PM 40.1067 -93.6994 62° Northeast 448 516 24,500 720 Climbing Kansas City Center
05:31PM 40.1519 -93.5478 69° East 452 520 25,300 720 Climbing Kansas City Center
05:32PM 40.1989 -93.3917 68° East 460 529 26,100 960 Climbing Kansas City Center
05:33PM 40.2439 -93.2367 69° East 460 529 27,300 1,200 Climbing Kansas City Center
05:34PM 40.2986 -93.0542 68° East 453 521 28,700 1,200 Climbing Kansas City Center
05:35PM 40.3442 -92.8961 69° East 449 517 29,800 1,020 Climbing Kansas City Center
05:36PM 40.3875 -92.7486 69° East 451 519 30,900 1,080 Climbing Kansas City Center
05:37PM 40.4342 -92.5811 70° East 459 528 32,100 960 Climbing Kansas City Center
05:38PM 40.4789 -92.4242 69° East 459 528 33,000 420 Climbing Kansas City Center
05:39PM 40.5222 -92.2647 70° East 468 539 33,000  Level Kansas City Center
05:40PM 40.5700 -92.0969 69° East 485 558 33,000 660 Level Kansas City Center
05:42PM 40.6222 -91.9028 70° East 477 549 34,400 1,020 Climbing Kansas City Center
05:42PM 40.6594 -91.7781 68° East 463 533 35,000 300 Climbing Chicago Center
05:43PM 40.7033 -91.6161 70° East 471 542 35,000  Level Chicago Center
05:44PM 40.7483 -91.4497 70° East 484 557 35,000  Level Chicago Center
05:45PM 40.7961 -91.2719 70° East 487 560 35,000  Level Chicago Center
05:47PM 40.8414 -91.1022 71° East 488 562 35,000  Level Chicago Center
05:48PM 40.8958 -90.9008 70° East 484 557 35,000  Level Chicago Center
05:49PM 40.9417 -90.7303 70° East 489 563 35,000  Level Chicago Center
05:50PM 40.9858 -90.5617 71° East 485 558 35,000  Level Chicago Center
05:51PM 41.0317 -90.3889 71° East 494 568 35,000  Level Chicago Center
05:52PM 41.0756 -90.2161 71° East 492 566 35,000  Level Chicago Center
05:53PM 41.1206 -90.0433 71° East 492 566 35,000  Level Chicago Center
05:54PM 41.1661 -89.8675 71° East 498 573 35,000  Level Chicago Center
05:55PM 41.2100 -89.6925 72° East 497 572 35,000  Level Chicago Center
05:56PM 41.2617 -89.4864 71° East 490 564 35,000  Level Chicago Center
05:57PM 41.3058 -89.3125 71° East 493 567 35,000  Level Chicago Center
05:58PM 41.3447 -89.1442 73° East 496 571 35,000  Level Chicago Center
05:59PM 41.3886 -88.9683 72° East 500 575 35,000  Level Chicago Center
06:00PM 41.4403 -88.7572 72° East 500 575 35,000  Level Chicago Center
06:01PM 41.4836 -88.5811 72° East 500 575 35,000  Level Chicago Center
06:02PM 41.5253 -88.4044 72° East 498 573 35,000  Level Chicago Center
06:03PM 41.5583 -88.2236 76° East 498 573 35,000  Level Chicago Center
06:04PM 41.5797 -88.0339 81° East 504 580 35,000  Level Chicago Center
06:05PM 41.6022 -87.8453 81° East 507 583 35,000  Level Chicago Center
06:06PM 41.6225 -87.6603 82° East 504 580 35,000  Level Chicago Center
06:07PM 41.6442 -87.4744 81° East 506 582 35,000  Level Chicago Center
06:08PM 41.6692 -87.2539 81° East 501 577 35,000  Level Chicago Center
06:09PM 41.6889 -87.0700 82° East 501 577 35,000  Level Chicago Center
06:10PM 41.7097 -86.8878 81° East 498 573 35,000 -180 Level Chicago Center
06:11PM 41.7292 -86.6925 82° East 498 573 34,700 -540 Descending Chicago Center
06:12PM 41.7486 -86.5103 82° East 494 568 34,000 -780 Descending Chicago Center
06:13PM 41.7667 -86.3269 82° East 495 570 33,200 -540 Descending Chicago Center
06:14PM 41.7867 -86.1453 82° East 492 566 33,000 -120 Descending Chicago Center
06:15PM 41.8042 -85.9639 83° East 491 565 33,000  Level Chicago Center
06:17PM 41.8272 -85.7483 82° East 484 557 33,000  Level Chicago Center
06:18PM 41.8458 -85.5650 82° East 489 563 33,000  Level Chicago Center
06:19PM 41.8633 -85.3814 83° East 487 560 33,000  Level Chicago Center
06:20PM 41.8817 -85.1975 82° East 491 565 33,000  Level Chicago Center
06:20PM 41.8853 -85.1581 83° East 498 573 33,000  Level Cleveland Center
06:21PM 41.9072 -84.9753 81° East 498 573 33,000  Level Cleveland Center
06:22PM 41.9264 -84.7978 82° East 492 566 33,000 -300 Level Cleveland Center
06:23PM 41.9411 -84.6144 84° East 492 566 32,500 -780 Descending Cleveland Center
06:24PM 41.9597 -84.4369 82° East 492 566 31,500 -1,200 Descending Cleveland Center
06:25PM 41.9747 -84.2394 84° East 486 559 30,100 -1,500 Descending Cleveland Center
06:26PM 41.9928 -84.0533 83° East 486 559 28,600 -1,500 Descending Cleveland Center
06:27PM 42.0086 -83.8697 83° East 486 559 27,200 -1,440 Descending Cleveland Center
06:28PM 42.0264 -83.6889 82° East 492 566 25,800 -1,380 Descending Cleveland Center
06:29PM 42.0414 -83.5078 84° East 492 566 24,500 -1,320 Descending Cleveland Center
06:30PM 42.0333 -83.3286 93° East 484 557 23,200 -780 Descending Cleveland Center
06:31PM 42.0186 -83.1572 97° East 471 542 23,000 -420 Descending Cleveland Center
06:32PM 42.0014 -82.9889 98° East 465 535 22,400 -1,500 Descending Cleveland Center
06:33PM 41.9858 -82.8264 97° East 454 522 20,000 -2,820 Descending Cleveland Center
06:34PM 41.9681 -82.6667 98° East 443 510 16,800 -2,880 Descending Cleveland Center
06:35PM 41.9458 -82.5150 101° East 427 491 14,300 -2,520 Descending Cleveland Center
06:36PM 41.9161 -82.4247 114° Southeast 393 452 12,600 -2,220 Descending Cleveland Center
06:36PM 41.9064 -82.3800 106° East 405 466 12,100 -1,800 Descending Cleveland Center
06:37PM 41.8625 -82.2475 114° Southeast 393 452 10,200 -1,080 Descending Cleveland Center
06:38PM 41.8119 -82.1350 121° Southeast 376 433 10,000 -120 Descending Cleveland Center
06:39PM 41.7294 -82.0689 149° Southeast 358 412 10,000 -60 Level Cleveland Center
06:40PM 41.6447 -81.9947 147° Southeast 369 425 9,900 -1,020 Descending Cleveland Center
06:41PM 41.5831 -81.9267 140° Southeast 324 373 8,000 -1,500 Descending Cleveland Center
06:42PM 41.5550 -81.8344 112° Southeast 276 318 6,900 -1,260 Descending Cleveland Center
06:43PM 41.5642 -81.7403 83° East 239 275 5,500 -1,380 Descending Cleveland Center
06:44PM 41.5525 -81.6708 103° East 206 237 4,200 -1,200 Descending Cleveland Center
06:45PM 41.5042 -81.6950 201° Southwest 153 176 3,200 -840 Descending Cleveland Center
06:46PM 41.4619 -81.7689 233° Southwest 186 214 2,400 -840 Descending Cleveland Center
06:47PM 41.4322 -81.8128 228° Southwest 151 174 1,400 -1,020 Descending Cleveland Center